createdAt,value
2022-12-03T00:00:27.723Z,9.40
2022-12-03T00:02:55.107Z,8.25
2022-12-03T00:05:22.927Z,9.70
2022-12-03T00:07:50.313Z,9.25
2022-12-03T00:10:17.836Z,8.30
2022-12-03T00:12:45.131Z,9.38
2022-12-03T00:15:12.386Z,8.38
2022-12-03T00:17:39.893Z,9.27
2022-12-03T00:20:09.206Z,9.07
2022-12-03T00:22:36.460Z,9.05
2022-12-03T00:25:03.838Z,8.70
2022-12-03T00:27:31.126Z,8.93
2022-12-03T00:29:58.454Z,9.35
2022-12-03T00:32:25.900Z,10.15
2022-12-03T00:34:53.471Z,9.57
2022-12-03T00:37:20.919Z,9.07
2022-12-03T00:39:48.803Z,9.07
2022-12-03T00:42:16.049Z,8.90
2022-12-03T00:44:43.338Z,8.77
2022-12-03T00:47:10.665Z,9.60
2022-12-03T00:49:38.658Z,9.88
2022-12-03T00:52:05.858Z,9.27
2022-12-03T00:54:35.227Z,10.48
2022-12-03T00:57:02.583Z,10.07
2022-12-03T00:59:29.843Z,9.25
2022-12-03T01:01:57.218Z,8.98
2022-12-03T01:04:24.596Z,7.65
2022-12-03T01:06:51.897Z,9.63
2022-12-03T01:09:19.224Z,9.55
2022-12-03T01:11:46.452Z,9.75
2022-12-03T01:14:19.451Z,10.65
2022-12-03T01:16:48.047Z,9.45
2022-12-03T01:19:16.261Z,10.50
2022-12-03T01:21:48.209Z,10.32
2022-12-03T01:24:16.010Z,10.25
2022-12-03T01:26:43.230Z,9.27
2022-12-03T01:29:10.684Z,9.90
2022-12-03T01:31:57.364Z,9.77
2022-12-03T01:34:24.659Z,8.98
2022-12-03T01:36:52.794Z,9.45
2022-12-03T01:39:20.199Z,10.15
2022-12-03T01:41:52.567Z,9.95
2022-12-03T01:44:24.115Z,10.43
2022-12-03T01:46:54.616Z,10.25
2022-12-03T01:49:26.419Z,10.30
2022-12-03T01:51:55.169Z,9.13
2022-12-03T01:54:27.980Z,9.40
2022-12-03T01:56:55.940Z,9.55
2022-12-03T01:59:35.914Z,9.80
2022-12-03T02:02:19.807Z,10.05
2022-12-03T02:04:49.666Z,10.32
2022-12-03T02:07:24.106Z,10.07
2022-12-03T02:09:53.881Z,10.32
2022-12-03T02:12:30.307Z,10.45
2022-12-03T02:14:58.114Z,9.65
2022-12-03T02:17:26.402Z,9.95
2022-12-03T02:19:55.298Z,9.90
2022-12-03T02:22:28.637Z,10.80
2022-12-03T02:25:16.035Z,10.85
2022-12-03T02:27:43.687Z,11.57
2022-12-03T02:30:13.598Z,9.90
2022-12-03T02:32:40.970Z,10.50
2022-12-03T02:35:23.662Z,10.27
2022-12-03T02:37:58.813Z,10.77
2022-12-03T02:40:31.071Z,10.45
2022-12-03T02:43:01.218Z,10.73
2022-12-03T02:45:40.662Z,10.90
2022-12-03T02:48:13.952Z,10.02
2022-12-03T02:50:46.239Z,10.57
2022-12-03T02:53:17.895Z,11.75
2022-12-03T02:55:45.587Z,10.57
2022-12-03T02:58:16.454Z,11.48
2022-12-03T03:00:45.239Z,10.98
2022-12-03T03:03:12.892Z,9.93
2022-12-03T03:05:41.608Z,10.38
2022-12-03T03:08:10.778Z,10.95
2022-12-03T03:10:40.765Z,10.35
2022-12-03T03:13:11.470Z,10.82
2022-12-03T03:18:09.051Z,11.40
2022-12-03T03:20:37.618Z,11.32
2022-12-03T03:23:11.042Z,11.20
2022-12-03T03:25:40.677Z,11.95
2022-12-03T03:28:08.758Z,11.57
2022-12-03T03:30:38.931Z,10.88
2022-12-03T03:33:06.577Z,10.73
2022-12-03T03:35:34.012Z,11.82
2022-12-03T03:38:01.912Z,11.80
2022-12-03T03:40:29.683Z,11.43
2022-12-03T03:42:57.828Z,12.55
2022-12-03T03:45:29.141Z,10.27
2022-12-03T03:47:59.633Z,11.25
2022-12-03T03:50:29.420Z,10.65
2022-12-03T03:53:00.874Z,11.05
2022-12-03T03:55:29.077Z,11.55
2022-12-03T03:57:56.679Z,11.05
2022-12-03T04:00:25.128Z,11.40
2022-12-03T04:02:53.759Z,10.25
2022-12-03T04:05:23.847Z,11.02
2022-12-03T04:07:51.448Z,11.52
2022-12-03T04:10:39.084Z,11.70
2022-12-03T04:13:06.900Z,11.93
2022-12-03T04:15:35.081Z,11.02
2022-12-03T04:18:20.907Z,11.02
2022-12-03T04:20:49.704Z,11.32
2022-12-03T04:23:16.906Z,11.63
2022-12-03T04:26:03.020Z,10.20
2022-12-03T04:28:48.878Z,11.90
2022-12-03T04:31:34.851Z,11.82
2022-12-03T04:34:20.470Z,12.27
2022-12-03T04:36:47.801Z,11.20
2022-12-03T04:39:15.247Z,11.43
2022-12-03T04:41:42.539Z,12.35
2022-12-03T04:44:28.298Z,11.93
2022-12-03T04:46:55.573Z,10.93
2022-12-03T04:49:22.971Z,11.70
2022-12-03T04:51:50.268Z,11.63
2022-12-03T04:54:17.566Z,12.63
2022-12-03T04:56:45.108Z,12.55
2022-12-03T04:59:15.968Z,11.93
2022-12-03T05:01:44.595Z,10.48
2022-12-03T05:04:14.091Z,12.27
2022-12-03T05:06:42.066Z,12.65
2022-12-03T05:09:10.340Z,11.82
2022-12-03T05:11:37.914Z,12.00
2022-12-03T05:14:05.599Z,11.80
2022-12-03T05:16:33.021Z,11.48
2022-12-03T05:19:01.275Z,12.20
2022-12-03T05:21:28.686Z,12.43
2022-12-03T05:23:58.705Z,12.32
2022-12-03T05:26:26.013Z,11.40
2022-12-03T05:28:53.347Z,12.25
2022-12-03T05:31:20.793Z,10.57
2022-12-03T05:33:48.531Z,10.95
2022-12-03T05:36:17.021Z,10.18
2022-12-03T05:38:44.361Z,11.18
2022-12-03T05:41:30.304Z,10.52
2022-12-03T05:43:57.549Z,11.20
2022-12-03T05:46:24.953Z,10.88
2022-12-03T05:48:52.213Z,11.57
2022-12-03T05:51:19.464Z,10.10
2022-12-03T05:53:46.865Z,10.88
2022-12-03T05:56:14.108Z,11.18
2022-12-03T05:58:41.345Z,11.30
2022-12-03T06:01:08.681Z,10.35
2022-12-03T06:03:36.093Z,10.23
2022-12-03T06:06:03.615Z,10.88
2022-12-03T06:08:31.016Z,10.85
2022-12-03T06:10:58.421Z,9.73
2022-12-03T06:13:26.155Z,10.07
2022-12-03T06:15:53.514Z,9.68
2022-12-03T06:18:20.925Z,10.75
2022-12-03T06:20:48.377Z,11.13
2022-12-03T06:23:16.886Z,9.95
2022-12-03T06:25:44.404Z,10.98
2022-12-03T06:28:11.738Z,10.80
2022-12-03T06:30:41.130Z,10.13
2022-12-03T06:33:08.399Z,10.15
2022-12-03T06:35:35.733Z,9.70
2022-12-03T06:38:03.182Z,10.70
2022-12-03T06:40:30.504Z,10.18
2022-12-03T06:42:57.712Z,10.23
2022-12-03T06:45:25.432Z,11.15
2022-12-03T06:47:52.727Z,10.25
2022-12-03T06:50:19.996Z,10.25
2022-12-03T06:52:49.463Z,11.95
2022-12-03T06:55:17.506Z,11.10
2022-12-03T06:57:44.765Z,9.82
2022-12-03T07:00:12.471Z,10.27
2022-12-03T07:02:39.822Z,10.52
2022-12-03T07:05:07.558Z,10.07
2022-12-03T07:07:36.677Z,9.63
2022-12-03T07:10:04.801Z,10.88
2022-12-03T07:12:33.086Z,10.43
2022-12-03T07:15:00.814Z,10.25
2022-12-03T07:17:29.853Z,11.25
2022-12-03T07:19:57.062Z,9.88
2022-12-03T07:22:24.319Z,9.85
2022-12-03T07:24:51.809Z,9.95
2022-12-03T07:27:20.701Z,10.60
2022-12-03T07:29:47.934Z,11.15
2022-12-03T07:32:15.160Z,10.55
2022-12-03T07:34:42.410Z,11.48
2022-12-03T07:37:09.658Z,10.38
2022-12-03T07:39:36.901Z,10.93
2022-12-03T07:42:04.975Z,11.10
2022-12-03T07:44:35.751Z,10.75
2022-12-03T07:47:03.054Z,11.70
2022-12-03T07:49:31.546Z,11.95
2022-12-03T07:51:58.805Z,11.85
2022-12-03T07:54:26.391Z,11.00
2022-12-03T07:56:59.617Z,11.30
2022-12-03T07:59:30.514Z,10.95
2022-12-03T08:01:59.062Z,12.27
2022-12-03T08:04:26.399Z,12.70
2022-12-03T08:06:53.919Z,12.43
2022-12-03T08:09:21.270Z,12.23
2022-12-03T08:11:51.487Z,11.50
2022-12-03T08:14:20.584Z,11.82
2022-12-03T08:16:49.363Z,12.15
2022-12-03T08:19:18.333Z,10.95
2022-12-03T08:21:45.693Z,12.00
2022-12-03T08:24:18.886Z,12.65
2022-12-03T08:26:48.712Z,11.90
2022-12-03T08:29:18.704Z,11.93
2022-12-03T08:31:52.436Z,10.02
2022-12-03T08:34:22.664Z,12.25
2022-12-03T08:36:52.445Z,12.35
2022-12-03T08:39:29.231Z,12.65
2022-12-03T08:42:42.521Z,12.73
2022-12-03T08:45:31.286Z,11.05
2022-12-03T08:48:32.630Z,12.57
2022-12-03T08:51:04.211Z,11.85
2022-12-03T08:53:36.179Z,12.48
2022-12-03T08:56:23.106Z,12.65
2022-12-03T08:59:02.624Z,13.25
2022-12-03T09:01:39.700Z,12.95
2022-12-03T09:04:31.503Z,13.25
2022-12-03T09:06:59.096Z,13.18
2022-12-03T09:09:26.601Z,12.57
2022-12-03T09:11:57.441Z,13.05
2022-12-03T09:14:24.760Z,13.18
2022-12-03T09:16:57.690Z,12.00
2022-12-03T09:19:26.653Z,13.98
2022-12-03T09:21:54.807Z,12.75
2022-12-03T09:24:22.261Z,11.93
2022-12-03T09:26:50.223Z,12.18
2022-12-03T09:29:17.551Z,12.52
2022-12-03T09:31:47.665Z,12.48
2022-12-03T09:34:15.397Z,12.45
2022-12-03T09:36:42.619Z,12.20
2022-12-03T09:39:09.874Z,12.68
2022-12-03T09:41:39.302Z,13.43
2022-12-03T09:44:09.653Z,12.25
2022-12-03T09:46:40.257Z,13.32
2022-12-03T09:49:15.585Z,14.32
2022-12-03T09:51:44.473Z,13.18
2022-12-03T09:54:26.321Z,13.75
2022-12-03T09:56:56.627Z,13.07
2022-12-03T09:59:27.923Z,12.55
2022-12-03T10:01:55.929Z,13.57
2022-12-03T10:04:23.427Z,13.00
2022-12-03T10:06:51.655Z,13.00
2022-12-03T10:09:24.501Z,12.73
2022-12-03T10:11:52.270Z,12.77
2022-12-03T10:14:20.306Z,13.18
2022-12-03T10:16:49.099Z,11.65
2022-12-03T10:19:22.312Z,13.73
2022-12-03T10:21:49.638Z,12.65
2022-12-03T10:24:16.828Z,13.32
2022-12-03T10:26:49.022Z,12.88
2022-12-03T10:29:33.164Z,13.15
2022-12-03T10:32:06.259Z,12.35
2022-12-03T10:34:36.866Z,12.88
2022-12-03T10:37:22.495Z,12.90
2022-12-03T10:40:00.532Z,13.85
2022-12-03T10:42:35.255Z,12.75
2022-12-03T10:45:29.148Z,12.30
2022-12-03T10:48:06.777Z,13.50
2022-12-03T10:50:35.397Z,13.77
2022-12-03T10:53:03.096Z,13.73
2022-12-03T10:55:39.883Z,13.23
2022-12-03T10:58:17.980Z,13.38
2022-12-03T11:00:45.396Z,12.95
2022-12-03T11:03:26.739Z,13.35
2022-12-03T11:05:57.937Z,14.27
2022-12-03T11:08:28.959Z,13.88
2022-12-03T11:11:18.120Z,12.93
2022-12-03T11:13:59.959Z,12.73
2022-12-03T11:16:39.163Z,13.82
2022-12-03T11:19:17.495Z,13.75
2022-12-03T11:22:03.894Z,12.85
2022-12-03T11:24:34.445Z,13.73
2022-12-03T11:27:01.689Z,13.65
2022-12-03T11:29:53.635Z,12.63
2022-12-03T11:33:01.889Z,14.65
2022-12-03T11:35:36.893Z,14.90
2022-12-03T11:41:31.943Z,13.70
2022-12-03T11:44:26.047Z,13.88
2022-12-03T11:46:54.392Z,15.23
2022-12-03T11:49:28.953Z,12.60
2022-12-03T11:51:58.136Z,14.77
2022-12-03T11:54:25.728Z,14.63
2022-12-03T11:56:54.366Z,13.77
2022-12-03T11:59:22.553Z,13.80
2022-12-03T12:01:51.279Z,14.05
2022-12-03T12:04:37.845Z,15.38
2022-12-03T12:07:05.380Z,14.80
2022-12-03T12:09:53.856Z,14.70
2022-12-03T12:12:53.257Z,14.27
2022-12-03T12:15:59.536Z,14.63
2022-12-03T12:18:54.701Z,13.88
2022-12-03T12:21:43.897Z,15.23
2022-12-03T12:24:51.560Z,12.90
2022-12-03T12:27:51.723Z,13.85
2022-12-03T12:30:21.865Z,13.97
2022-12-03T12:32:50.654Z,14.45
2022-12-03T12:35:24.167Z,15.52
2022-12-03T12:38:00.476Z,14.52
2022-12-03T12:40:32.264Z,14.75
2022-12-03T12:43:08.291Z,14.75
2022-12-03T12:45:41.617Z,14.60
2022-12-03T12:48:25.965Z,13.80
2022-12-03T12:51:01.852Z,14.25
2022-12-03T12:53:37.004Z,15.10
2022-12-03T12:56:15.197Z,12.82
2022-12-03T12:58:43.107Z,15.43
2022-12-03T13:01:36.905Z,15.40
2022-12-03T13:04:13.922Z,14.52
2022-12-03T13:06:41.610Z,16.50
2022-12-03T13:09:17.865Z,15.88
2022-12-03T13:11:58.229Z,14.68
2022-12-03T13:14:32.160Z,14.55
2022-12-03T13:17:09.863Z,14.13
2022-12-03T13:19:48.250Z,15.15
2022-12-03T13:22:21.981Z,14.07
2022-12-03T13:24:56.095Z,13.85
2022-12-03T13:27:29.625Z,15.45
2022-12-03T13:30:21.015Z,14.95
2022-12-03T13:32:49.168Z,14.63
2022-12-03T13:35:27.241Z,16.58
2022-12-03T13:37:54.508Z,15.60
2022-12-03T13:40:35.309Z,15.25
2022-12-03T13:43:21.084Z,15.40
2022-12-03T13:45:50.683Z,15.07
2022-12-03T13:48:35.626Z,14.77
2022-12-03T13:51:21.148Z,15.07
2022-12-03T13:53:49.070Z,15.55
2022-12-03T13:56:33.734Z,15.77
2022-12-03T13:59:01.753Z,14.90
2022-12-03T14:01:29.564Z,15.07
2022-12-03T14:03:57.094Z,14.63
2022-12-03T14:06:24.404Z,16.35
2022-12-03T14:08:51.673Z,15.90
2022-12-03T14:11:38.328Z,15.88
2022-12-03T14:14:05.747Z,15.52
2022-12-03T14:16:33.120Z,14.88
2022-12-03T14:19:00.848Z,14.98
2022-12-03T14:21:28.306Z,15.00
2022-12-03T14:23:55.620Z,14.77
2022-12-03T14:26:22.889Z,14.68
2022-12-03T14:28:50.223Z,14.73
2022-12-03T14:31:17.601Z,14.02
2022-12-03T14:33:44.947Z,14.95
2022-12-03T14:36:12.312Z,15.20
2022-12-03T14:38:39.578Z,16.08
2022-12-03T14:41:26.784Z,15.75
2022-12-03T14:43:54.284Z,16.73
2022-12-03T14:46:21.689Z,16.15
2022-12-03T14:48:50.364Z,15.90
2022-12-03T14:51:18.746Z,15.32
2022-12-03T14:53:46.034Z,16.52
2022-12-03T14:56:13.288Z,14.57
2022-12-03T14:58:40.644Z,14.90
2022-12-03T15:01:08.021Z,15.70
2022-12-03T15:03:36.445Z,14.30
2022-12-03T15:06:03.776Z,15.30
2022-12-03T15:08:31.395Z,15.80
2022-12-03T15:10:58.729Z,14.35
2022-12-03T15:13:26.612Z,14.32
2022-12-03T15:15:53.849Z,15.90
2022-12-03T15:18:21.144Z,16.17
2022-12-03T15:20:49.903Z,15.82
2022-12-03T15:23:17.970Z,16.42
2022-12-03T15:25:45.252Z,13.48
2022-12-03T15:28:12.612Z,17.30
2022-12-03T15:30:39.902Z,15.85
2022-12-03T15:33:09.313Z,15.77
2022-12-03T15:35:36.869Z,16.23
2022-12-03T15:38:04.137Z,16.25
2022-12-03T15:40:31.843Z,17.20
2022-12-03T15:42:59.159Z,16.88
2022-12-03T15:45:26.475Z,16.77
2022-12-03T15:47:53.849Z,17.45
2022-12-03T15:50:34.582Z,16.02
2022-12-03T15:53:06.135Z,15.85
2022-12-03T15:55:36.030Z,16.10
2022-12-03T15:58:03.588Z,16.13
2022-12-03T16:00:30.847Z,14.75
2022-12-03T16:02:58.126Z,15.40
2022-12-03T16:05:25.530Z,15.63
2022-12-03T16:07:52.877Z,16.17
2022-12-03T16:10:21.574Z,15.02
2022-12-03T16:12:50.525Z,15.43
2022-12-03T16:15:22.100Z,15.85
2022-12-03T16:17:52.563Z,13.98
2022-12-03T16:20:19.886Z,16.33
2022-12-03T16:22:47.616Z,14.45
2022-12-03T16:25:15.044Z,15.50
2022-12-03T16:27:42.426Z,13.95
2022-12-03T16:30:10.326Z,14.27
2022-12-03T16:32:37.757Z,15.63
2022-12-03T16:35:05.773Z,16.27
2022-12-03T16:37:33.259Z,14.93
2022-12-03T16:40:02.879Z,15.45
2022-12-03T16:42:30.720Z,15.18
2022-12-03T16:44:57.977Z,15.27
2022-12-03T16:47:30.636Z,15.60
2022-12-03T16:50:05.176Z,16.85
2022-12-03T16:52:32.606Z,15.13
2022-12-03T16:55:00.104Z,15.23
2022-12-03T16:57:33.104Z,15.50
2022-12-03T17:00:01.741Z,15.65
2022-12-03T17:02:29.053Z,16.35
2022-12-03T17:04:56.404Z,15.85
2022-12-03T17:07:23.747Z,16.02
2022-12-03T17:09:51.191Z,14.57
2022-12-03T17:12:18.583Z,16.67
2022-12-03T17:14:45.891Z,15.48
2022-12-03T17:17:13.158Z,15.80
2022-12-03T17:19:40.375Z,13.85
2022-12-03T17:22:07.680Z,15.55
2022-12-03T17:24:34.926Z,15.57
2022-12-03T17:27:02.305Z,15.07
2022-12-03T17:29:29.565Z,14.75
2022-12-03T17:31:56.884Z,16.10
2022-12-03T17:34:24.154Z,14.48
2022-12-03T17:36:51.626Z,14.98
2022-12-03T17:39:18.902Z,15.23
2022-12-03T17:41:50.189Z,14.50
2022-12-03T17:44:21.245Z,15.52
2022-12-03T17:46:50.193Z,14.88
2022-12-03T17:49:17.683Z,14.50
2022-12-03T17:51:44.893Z,14.85
2022-12-03T17:54:13.969Z,14.63
2022-12-03T17:56:43.596Z,13.63
2022-12-03T17:59:14.572Z,14.70
2022-12-03T18:01:42.458Z,14.48
2022-12-03T18:04:10.464Z,16.15
2022-12-03T18:06:38.160Z,14.23
2022-12-03T18:09:05.866Z,14.73
2022-12-03T18:11:35.159Z,13.93
2022-12-03T18:14:02.466Z,14.70
2022-12-03T18:16:29.939Z,15.02
2022-12-03T18:19:02.032Z,14.23
2022-12-03T18:21:33.975Z,14.23
2022-12-03T18:24:02.258Z,14.77
2022-12-03T18:26:29.743Z,14.50
2022-12-03T18:28:57.203Z,14.18
2022-12-03T18:31:24.583Z,12.75
2022-12-03T18:33:52.817Z,14.30
2022-12-03T18:36:26.144Z,13.57
2022-12-03T18:38:55.464Z,12.85
2022-12-03T18:41:24.415Z,14.15
2022-12-03T18:43:52.793Z,12.52
2022-12-03T18:49:09.460Z,13.90
2022-12-03T18:51:37.290Z,14.35
2022-12-03T18:54:04.768Z,13.30
2022-12-03T18:56:32.013Z,16.70
2022-12-03T18:58:59.253Z,13.18
2022-12-03T19:01:26.587Z,12.93
2022-12-03T19:03:55.359Z,13.70
2022-12-03T19:06:22.653Z,11.70
2022-12-03T19:08:54.044Z,13.18
2022-12-03T19:11:22.083Z,16.05
2022-12-03T19:13:49.483Z,14.00
2022-12-03T19:16:17.313Z,13.27
2022-12-03T19:18:45.283Z,16.30
2022-12-03T19:21:15.498Z,13.82
2022-12-03T19:24:04.325Z,15.32
2022-12-03T19:26:30.930Z,14.25
2022-12-03T19:28:59.800Z,14.85
2022-12-03T19:31:27.372Z,14.10
2022-12-03T19:33:54.682Z,14.73
2022-12-03T19:36:25.359Z,14.05
2022-12-03T19:41:28.487Z,13.70
2022-12-03T19:43:57.070Z,14.32
2022-12-03T19:46:28.655Z,12.75
2022-12-03T19:48:56.264Z,13.60
2022-12-03T19:51:34.733Z,13.88
2022-12-03T19:54:08.039Z,14.07
2022-12-03T19:56:35.643Z,15.02
2022-12-03T19:59:03.560Z,13.38
2022-12-03T20:01:50.968Z,13.75
2022-12-03T20:04:18.392Z,13.88
2022-12-03T20:06:45.700Z,14.98
2022-12-03T20:09:17.284Z,14.00
2022-12-03T20:11:45.798Z,14.00
2022-12-03T20:14:15.474Z,15.15
2022-12-03T20:16:43.973Z,11.82
2022-12-03T20:19:13.564Z,13.35
2022-12-03T20:21:44.795Z,15.20
2022-12-03T20:24:17.615Z,14.88
2022-12-03T20:26:47.657Z,14.57
2022-12-03T20:29:15.179Z,10.93
2022-12-03T20:31:43.710Z,14.88
2022-12-03T20:34:11.364Z,16.38
2022-12-03T20:36:42.390Z,14.40
2022-12-03T20:39:10.335Z,15.15
2022-12-03T20:41:38.001Z,14.38
2022-12-03T20:44:07.731Z,16.17
2022-12-03T20:46:36.491Z,15.10
2022-12-03T20:49:04.828Z,15.60
2022-12-03T20:51:32.591Z,15.23
2022-12-03T20:54:01.173Z,16.48
2022-12-03T20:56:31.599Z,17.95
2022-12-03T20:59:10.355Z,16.65
2022-12-03T21:01:38.627Z,15.70
2022-12-03T21:04:07.281Z,16.38
2022-12-03T21:06:36.916Z,15.40
2022-12-03T21:09:08.371Z,15.25
2022-12-03T21:11:41.473Z,15.25
2022-12-03T21:14:11.237Z,15.45
2022-12-03T21:19:30.237Z,16.45
2022-12-03T21:21:57.534Z,15.10
2022-12-03T21:24:24.824Z,15.43
2022-12-03T21:26:52.136Z,15.68
2022-12-03T21:29:19.509Z,22.50
2022-12-03T21:31:46.956Z,18.48
2022-12-03T21:34:14.144Z,17.02
2022-12-03T21:36:41.715Z,19.67
2022-12-03T21:39:09.455Z,17.65
2022-12-03T21:41:36.819Z,17.48
2022-12-03T21:44:04.507Z,17.73
2022-12-03T21:47:10.098Z,17.65
2022-12-03T21:49:20.920Z,17.83
2022-12-03T21:51:48.677Z,18.70
2022-12-03T21:54:15.968Z,19.00
2022-12-03T21:56:43.442Z,19.08
2022-12-03T21:59:10.609Z,19.38
2022-12-03T22:01:40.574Z,18.83
2022-12-03T22:04:10.128Z,18.88
2022-12-03T22:06:37.367Z,18.73
2022-12-03T22:09:04.702Z,19.50
2022-12-03T22:11:31.994Z,19.52
2022-12-03T22:13:59.310Z,17.13
2022-12-03T22:16:26.638Z,17.67
2022-12-03T22:18:54.319Z,18.17
2022-12-03T22:21:21.874Z,18.95
2022-12-03T22:23:49.125Z,17.55
2022-12-03T22:26:18.557Z,16.20
2022-12-03T22:28:47.986Z,18.60
2022-12-03T22:31:16.877Z,17.92
2022-12-03T22:33:48.138Z,21.30
2022-12-03T22:36:21.063Z,19.38
2022-12-03T22:38:50.944Z,19.83
2022-12-03T22:41:20.178Z,21.23
2022-12-03T22:43:48.879Z,17.95
2022-12-03T22:46:17.434Z,20.85
2022-12-03T22:48:47.669Z,17.98
2022-12-03T22:51:20.652Z,16.77
2022-12-03T22:53:48.818Z,18.40
2022-12-03T22:56:17.323Z,17.92
2022-12-03T22:58:44.905Z,19.33
2022-12-03T23:01:38.637Z,18.63
2022-12-03T23:04:11.723Z,16.60
2022-12-03T23:06:40.321Z,17.02
2022-12-03T23:09:08.602Z,17.42
2022-12-03T23:11:37.117Z,17.08
2022-12-03T23:14:04.616Z,15.35
2022-12-03T23:16:33.278Z,16.75
2022-12-03T23:19:01.798Z,16.60
2022-12-03T23:21:31.833Z,17.05
2022-12-03T23:24:00.312Z,18.38
2022-12-03T23:26:28.620Z,15.50
2022-12-03T23:28:56.479Z,17.58
2022-12-03T23:31:26.770Z,16.67
2022-12-03T23:33:54.925Z,16.13
2022-12-03T23:36:23.466Z,16.95
2022-12-03T23:38:50.809Z,15.25
2022-12-03T23:41:20.732Z,15.82
2022-12-03T23:43:49.262Z,15.55
2022-12-03T23:46:20.064Z,15.23
2022-12-03T23:48:47.728Z,16.60
2022-12-03T23:51:17.880Z,17.50
2022-12-03T23:53:47.653Z,16.27
2022-12-03T23:56:21.950Z,16.33
2022-12-03T23:58:49.230Z,15.15
